Terminal Aerodrome Forecast
Issued by NWS Topeka, KS

Current Version | Previous Version | Text Only | Print | Product List | Glossary On
Versions: 1 2 3 4 5 6 7 8 9 10 11 12 13 14 15 16 17
636
FTUS43 KTOP 292320
TAFTOP
TAF
KTOP 292320Z 3000/3024 02013G21KT 3SM -RA OVC009
     FM300200 03012G20KT 6SM BR VCSH OVC007
     FM300900 04012G20KT 3SM -RA BR OVC007
      TEMPO 3010/3013 2SM RA BR OVC005
     FM301500 16011KT P6SM VCSH OVC008
     FM301900 17013KT P6SM VCSH OVC015=

USA.gov is the U.S. government's official web portal to all federal, state and local government web resources and services.